Zaliv Amerika — C4ZR2 — position and weather

sailwx.info

Track history (hours):
 
Tides and Currents Weather Stations Pressure Air Temp Water Temp Dewpoint Dewpoint Depression Visibility Wind Speed Wind Dir Waves Ship Positions

Zaliv Amerika

Last reported at 2014-Sep-23 13:26 UTC. Time now 2014-Sep-23 14:30 UTC.
Position N 01°05' E 103°38'.

Length 243 m; draft 9.5 m.

Type: Tanker. MMSI: 210435000.

Date/timePositionNaut miles runAvg speedWind from/ knotsBaromVisibWave heightAir tempDewpointWater temp
2014-Sep-23 13:26N 01°05' E 103°38'0 0.0
2014-Sep-23 12:29N 01°05' E 103°38'0 0.0
2014-Sep-23 11:31N 01°05' E 103°38'0 0.0
2014-Sep-23 08:18N 01°05' E 103°38'0 0.0
2014-Sep-23 07:23N 01°05' E 103°38'0 0.0
2014-Sep-23 06:26N 01°05' E 103°38'0 0.0
2014-Sep-23 05:23N 01°05' E 103°38'0 0.1
2014-Sep-23 04:10N 01°05' E 103°38'0 0.0
2014-Sep-23 03:16N 01°05' E 103°38'0 0.1
2014-Sep-23 02:27N 01°05' E 103°38'0 0.0
2014-Sep-23 01:33N 01°06' E 103°38'0 0.0
2014-Sep-22 22:32N 01°05' E 103°38'0 0.0
2014-Sep-22 21:31N 01°05' E 103°38'0 0.0
2014-Sep-22 16:32N 01°05' E 103°38'0 0.0
2014-Sep-22 14:22N 01°05' E 103°38'0 0.0
2014-Sep-22 13:16N 01°05' E 103°38'0 0.0
2014-Sep-22 12:21N 01°05' E 103°38'0 0.0
2014-Sep-22 11:30N 01°05' E 103°38'0 0.0
2014-Sep-22 10:26N 01°06' E 103°38'0 0.0
2014-Sep-22 09:32N 01°05' E 103°38'0 0.0
2014-Sep-22 07:28N 01°06' E 103°38'0 0.0
2014-Sep-22 06:31N 01°06' E 103°38'0 0.0
2014-Sep-22 05:26N 01°06' E 103°38'0 0.0
2014-Sep-22 03:29N 01°05' E 103°38'0 0.0
2014-Sep-22 02:26N 01°05' E 103°38'0 0.0
2014-Sep-22 01:13N 01°05' E 103°38'0 0.0
2014-Sep-21 23:28N 01°05' E 103°38'0 0.0
2014-Sep-21 22:30N 01°06' E 103°38'0 0.0
2014-Sep-21 19:14N 01°06' E 103°38'0 0.0
2014-Sep-21 18:31N 01°06' E 103°38'0 0.0
2014-Sep-21 17:31N 01°06' E 103°38'0 0.0
2014-Sep-21 16:12N 01°06' E 103°38'0 0.0
2014-Sep-21 14:24N 01°06' E 103°38'0 0.0
2014-Sep-21 12:08N 01°06' E 103°38'0 0.1
2014-Sep-21 11:31N 01°05' E 103°38'0 0.0
2014-Sep-21 10:28N 01°06' E 103°38'0 0.0
2014-Sep-21 09:27N 01°05' E 103°38'0 0.0
2014-Sep-21 08:33N 01°06' E 103°38'0 0.0
2014-Sep-21 07:33N 01°06' E 103°38'0 0.1
2014-Sep-21 06:29N 01°05' E 103°38'0 0.0
2014-Sep-21 05:32N 01°05' E 103°38'0 0.0
2014-Sep-21 04:25N 01°05' E 103°38'0 0.0
2014-Sep-20 01:19N 01°05' E 103°38'1 0.6
2014-Sep-19 23:14N 01°07' E 103°38'1 1.6
2014-Sep-19 22:33N 01°08' E 103°38'4 4.1
2014-Sep-19 21:34N 01°10' E 103°41'8 7.6
2014-Sep-19 20:34N 01°11' E 103°49'1010.4
2014-Sep-19 19:34N 01°15' E 103°58'1412.1
2014-Sep-19 18:22N 01°17' E 104°12'  
2014-Sep-14 10:32N 01°15' E 104°05'1515.0
2014-Sep-14 09:33N 01°12' E 103°51'2 1.6
2014-Sep-14 08:33N 01°13' E 103°49'0 0.1
2014-Sep-14 07:32N 01°13' E 103°49'0 0.0
2014-Sep-14 06:33N 01°13' E 103°49'3 3.3
2014-Sep-14 05:34N 01°14' E 103°46'0 0.0
2014-Sep-14 04:13N 01°14' E 103°46'0 0.0
2014-Sep-14 03:24N 01°14' E 103°46'0 0.0
2014-Sep-14 02:12N 01°14' E 103°46'0 0.0
2014-Sep-14 01:30N 01°14' E 103°46'0 0.0
2014-Sep-13 21:04N 01°14' E 103°46'0 0.0
2014-Sep-13 20:33N 01°14' E 103°46'0 0.0
2014-Sep-13 19:33N 01°14' E 103°46'0 0.0
2014-Sep-13 18:33N 01°14' E 103°46'0 0.0
2014-Sep-13 17:14N 01°14' E 103°46'0 0.0
2014-Sep-13 16:32N 01°14' E 103°46'0 0.0
2014-Sep-13 15:25N 01°14' E 103°46'0 0.0
2014-Sep-13 14:31N 01°14' E 103°46'0 0.0
2014-Sep-13 13:33N 01°14' E 103°46'  
Track history (hours):
 
Tides and Currents Weather Stations Pressure Air Temp Water Temp Dewpoint Dewpoint Depression Visibility Wind Speed Wind Dir Waves Ship Positions

Zaliv Amerika

Last reported at 2014-Sep-23 13:26 UTC. Time now 2014-Sep-23 14:30 UTC.
Position N 01°05' E 103°38'.

Length 243 m; draft 9.5 m.

Type: Tanker. MMSI: 210435000.

Date/timePositionNaut miles runAvg speedWind from/ knotsBaromVisibWave heightAir tempDewpointWater temp
2014-Sep-23 13:26N 01°05' E 103°38'0 0.0
2014-Sep-23 12:29N 01°05' E 103°38'0 0.0
2014-Sep-23 11:31N 01°05' E 103°38'0 0.0
2014-Sep-23 08:18N 01°05' E 103°38'0 0.0
2014-Sep-23 07:23N 01°05' E 103°38'0 0.0
2014-Sep-23 06:26N 01°05' E 103°38'0 0.0
2014-Sep-23 05:23N 01°05' E 103°38'0 0.1
2014-Sep-23 04:10N 01°05' E 103°38'0 0.0
2014-Sep-23 03:16N 01°05' E 103°38'0 0.1
2014-Sep-23 02:27N 01°05' E 103°38'0 0.0
2014-Sep-23 01:33N 01°06' E 103°38'0 0.0
2014-Sep-22 22:32N 01°05' E 103°38'0 0.0
2014-Sep-22 21:31N 01°05' E 103°38'0 0.0
2014-Sep-22 16:32N 01°05' E 103°38'0 0.0
2014-Sep-22 14:22N 01°05' E 103°38'0 0.0
2014-Sep-22 13:16N 01°05' E 103°38'0 0.0
2014-Sep-22 12:21N 01°05' E 103°38'0 0.0
2014-Sep-22 11:30N 01°05' E 103°38'0 0.0
2014-Sep-22 10:26N 01°06' E 103°38'0 0.0
2014-Sep-22 09:32N 01°05' E 103°38'0 0.0
2014-Sep-22 07:28N 01°06' E 103°38'0 0.0
2014-Sep-22 06:31N 01°06' E 103°38'0 0.0
2014-Sep-22 05:26N 01°06' E 103°38'0 0.0
2014-Sep-22 03:29N 01°05' E 103°38'0 0.0
2014-Sep-22 02:26N 01°05' E 103°38'0 0.0
2014-Sep-22 01:13N 01°05' E 103°38'0 0.0
2014-Sep-21 23:28N 01°05' E 103°38'0 0.0
2014-Sep-21 22:30N 01°06' E 103°38'0 0.0
2014-Sep-21 19:14N 01°06' E 103°38'0 0.0
2014-Sep-21 18:31N 01°06' E 103°38'0 0.0
2014-Sep-21 17:31N 01°06' E 103°38'0 0.0
2014-Sep-21 16:12N 01°06' E 103°38'0 0.0
2014-Sep-21 14:24N 01°06' E 103°38'0 0.0
2014-Sep-21 12:08N 01°06' E 103°38'0 0.1
2014-Sep-21 11:31N 01°05' E 103°38'0 0.0
2014-Sep-21 10:28N 01°06' E 103°38'0 0.0
2014-Sep-21 09:27N 01°05' E 103°38'0 0.0
2014-Sep-21 08:33N 01°06' E 103°38'0 0.0
2014-Sep-21 07:33N 01°06' E 103°38'0 0.1
2014-Sep-21 06:29N 01°05' E 103°38'0 0.0
2014-Sep-21 05:32N 01°05' E 103°38'0 0.0
2014-Sep-21 04:25N 01°05' E 103°38'0 0.0
2014-Sep-20 01:19N 01°05' E 103°38'1 0.6
2014-Sep-19 23:14N 01°07' E 103°38'1 1.6
2014-Sep-19 22:33N 01°08' E 103°38'4 4.1
2014-Sep-19 21:34N 01°10' E 103°41'8 7.6
2014-Sep-19 20:34N 01°11' E 103°49'1010.4
2014-Sep-19 19:34N 01°15' E 103°58'1412.1
2014-Sep-19 18:22N 01°17' E 104°12'  
2014-Sep-14 10:32N 01°15' E 104°05'1515.0
2014-Sep-14 09:33N 01°12' E 103°51'2 1.6
2014-Sep-14 08:33N 01°13' E 103°49'0 0.1
2014-Sep-14 07:32N 01°13' E 103°49'0 0.0
2014-Sep-14 06:33N 01°13' E 103°49'3 3.3
2014-Sep-14 05:34N 01°14' E 103°46'0 0.0
2014-Sep-14 04:13N 01°14' E 103°46'0 0.0
2014-Sep-14 03:24N 01°14' E 103°46'0 0.0
2014-Sep-14 02:12N 01°14' E 103°46'0 0.0
2014-Sep-14 01:30N 01°14' E 103°46'0 0.0
2014-Sep-13 21:04N 01°14' E 103°46'0 0.0
2014-Sep-13 20:33N 01°14' E 103°46'0 0.0
2014-Sep-13 19:33N 01°14' E 103°46'0 0.0
2014-Sep-13 18:33N 01°14' E 103°46'0 0.0
2014-Sep-13 17:14N 01°14' E 103°46'0 0.0
2014-Sep-13 16:32N 01°14' E 103°46'0 0.0
2014-Sep-13 15:25N 01°14' E 103°46'0 0.0
2014-Sep-13 14:31N 01°14' E 103°46'0 0.0
2014-Sep-13 13:33N 01°14' E 103°46'  

Dump ship's entire track history